sensor_id;sensor_type;location;lat;lon;timestamp;P1;durP1;ratioP1;P2;durP2;ratioP2
15952;SDS011;8075;47.766;8.846;2023-12-20T00:01:23;2.20;;;2.00;;
15952;SDS011;8075;47.766;8.846;2023-12-20T00:03:49;2.60;;;2.30;;
15952;SDS011;8075;47.766;8.846;2023-12-20T00:06:15;2.80;;;2.47;;
15952;SDS011;8075;47.766;8.846;2023-12-20T00:08:41;2.30;;;2.10;;
15952;SDS011;8075;47.766;8.846;2023-12-20T00:11:07;2.88;;;2.15;;
15952;SDS011;8075;47.766;8.846;2023-12-20T00:13:33;1.90;;;1.73;;
15952;SDS011;8075;47.766;8.846;2023-12-20T00:15:59;1.90;;;1.60;;
15952;SDS011;8075;47.766;8.846;2023-12-20T00:18:24;2.08;;;1.85;;
15952;SDS011;8075;47.766;8.846;2023-12-20T00:20:50;1.60;;;1.50;;
15952;SDS011;8075;47.766;8.846;2023-12-20T00:23:16;1.63;;;1.40;;
15952;SDS011;8075;47.766;8.846;2023-12-20T00:25:42;2.50;;;2.28;;
15952;SDS011;8075;47.766;8.846;2023-12-20T00:28:08;2.47;;;2.28;;
15952;SDS011;8075;47.766;8.846;2023-12-20T00:30:34;3.03;;;2.72;;
15952;SDS011;8075;47.766;8.846;2023-12-20T00:33:01;3.17;;;2.60;;
15952;SDS011;8075;47.766;8.846;2023-12-20T00:35:27;3.30;;;3.00;;
15952;SDS011;8075;47.766;8.846;2023-12-20T00:37:53;3.23;;;2.93;;
15952;SDS011;8075;47.766;8.846;2023-12-20T00:40:19;2.40;;;2.20;;
15952;SDS011;8075;47.766;8.846;2023-12-20T00:42:45;1.70;;;1.60;;
15952;SDS011;8075;47.766;8.846;2023-12-20T00:45:12;1.67;;;1.58;;
15952;SDS011;8075;47.766;8.846;2023-12-20T00:47:38;1.95;;;1.85;;
15952;SDS011;8075;47.766;8.846;2023-12-20T00:50:04;2.42;;;2.22;;
15952;SDS011;8075;47.766;8.846;2023-12-20T00:52:30;2.33;;;2.13;;
15952;SDS011;8075;47.766;8.846;2023-12-20T00:54:56;2.45;;;2.25;;
15952;SDS011;8075;47.766;8.846;2023-12-20T00:57:22;2.85;;;2.65;;
15952;SDS011;8075;47.766;8.846;2023-12-20T00:59:48;2.60;;;2.40;;
15952;SDS011;8075;47.766;8.846;2023-12-20T01:02:14;2.50;;;2.30;;
15952;SDS011;8075;47.766;8.846;2023-12-20T01:04:40;3.00;;;2.80;;
15952;SDS011;8075;47.766;8.846;2023-12-20T01:07:07;2.80;;;2.60;;
15952;SDS011;8075;47.766;8.846;2023-12-20T01:09:33;3.75;;;2.70;;
15952;SDS011;8075;47.766;8.846;2023-12-20T01:11:59;3.33;;;3.03;;
15952;SDS011;8075;47.766;8.846;2023-12-20T01:14:25;3.40;;;3.10;;
15952;SDS011;8075;47.766;8.846;2023-12-20T01:16:51;3.10;;;2.90;;
15952;SDS011;8075;47.766;8.846;2023-12-20T01:19:17;3.30;;;2.95;;
15952;SDS011;8075;47.766;8.846;2023-12-20T01:21:43;3.70;;;3.40;;
15952;SDS011;8075;47.766;8.846;2023-12-20T01:24:09;3.42;;;3.13;;
15952;SDS011;8075;47.766;8.846;2023-12-20T01:26:35;3.55;;;3.25;;
15952;SDS011;8075;47.766;8.846;2023-12-20T01:29:01;3.97;;;3.13;;
15952;SDS011;8075;47.766;8.846;2023-12-20T01:31:28;3.58;;;3.28;;
15952;SDS011;8075;47.766;8.846;2023-12-20T01:33:54;3.92;;;3.53;;
15952;SDS011;8075;47.766;8.846;2023-12-20T01:36:19;3.63;;;3.33;;
15952;SDS011;8075;47.766;8.846;2023-12-20T01:38:45;4.03;;;3.73;;
15952;SDS011;8075;47.766;8.846;2023-12-20T01:41:11;4.10;;;3.70;;
15952;SDS011;8075;47.766;8.846;2023-12-20T01:43:37;3.75;;;3.45;;
15952;SDS011;8075;47.766;8.846;2023-12-20T01:46:03;4.20;;;3.80;;
15952;SDS011;8075;47.766;8.846;2023-12-20T01:48:30;4.20;;;3.80;;
15952;SDS011;8075;47.766;8.846;2023-12-20T01:50:57;4.32;;;3.95;;
15952;SDS011;8075;47.766;8.846;2023-12-20T01:53:23;4.30;;;3.90;;
15952;SDS011;8075;47.766;8.846;2023-12-20T01:55:51;4.60;;;4.20;;
15952;SDS011;8075;47.766;8.846;2023-12-20T01:58:17;4.50;;;4.10;;
15952;SDS011;8075;47.766;8.846;2023-12-20T02:00:44;4.57;;;4.17;;
15952;SDS011;8075;47.766;8.846;2023-12-20T02:03:10;4.28;;;3.88;;
15952;SDS011;8075;47.766;8.846;2023-12-20T02:05:37;6.72;;;4.30;;
15952;SDS011;8075;47.766;8.846;2023-12-20T02:08:05;4.85;;;4.45;;
15952;SDS011;8075;47.766;8.846;2023-12-20T02:10:32;4.15;;;3.85;;
15952;SDS011;8075;47.766;8.846;2023-12-20T02:12:58;4.57;;;4.18;;
15952;SDS011;8075;47.766;8.846;2023-12-20T02:15:24;4.28;;;3.88;;
15952;SDS011;8075;47.766;8.846;2023-12-20T02:17:50;4.70;;;4.20;;
15952;SDS011;8075;47.766;8.846;2023-12-20T02:20:16;4.88;;;4.45;;
15952;SDS011;8075;47.766;8.846;2023-12-20T02:22:42;4.80;;;4.40;;
15952;SDS011;8075;47.766;8.846;2023-12-20T02:25:08;4.60;;;4.20;;
15952;SDS011;8075;47.766;8.846;2023-12-20T02:27:34;4.55;;;4.15;;
15952;SDS011;8075;47.766;8.846;2023-12-20T02:30:00;4.80;;;4.32;;
15952;SDS011;8075;47.766;8.846;2023-12-20T02:32:26;4.90;;;4.35;;
15952;SDS011;8075;47.766;8.846;2023-12-20T02:34:54;5.00;;;4.50;;
15952;SDS011;8075;47.766;8.846;2023-12-20T02:37:20;4.90;;;4.50;;
15952;SDS011;8075;47.766;8.846;2023-12-20T02:39:46;4.80;;;4.40;;
15952;SDS011;8075;47.766;8.846;2023-12-20T02:42:12;4.60;;;4.20;;
15952;SDS011;8075;47.766;8.846;2023-12-20T02:44:38;4.75;;;4.28;;
15952;SDS011;8075;47.766;8.846;2023-12-20T02:47:04;4.70;;;4.30;;
15952;SDS011;8075;47.766;8.846;2023-12-20T02:49:31;5.00;;;4.60;;
15952;SDS011;8075;47.766;8.846;2023-12-20T02:51:57;5.28;;;4.78;;
15952;SDS011;8075;47.766;8.846;2023-12-20T02:54:23;5.70;;;5.20;;
15952;SDS011;8075;47.766;8.846;2023-12-20T02:56:49;5.50;;;5.00;;
15952;SDS011;8075;47.766;8.846;2023-12-20T02:59:15;6.18;;;5.57;;
15952;SDS011;8075;47.766;8.846;2023-12-20T03:01:42;6.88;;;6.28;;
15952;SDS011;8075;47.766;8.846;2023-12-20T03:04:08;6.63;;;5.70;;
15952;SDS011;8075;47.766;8.846;2023-12-20T03:06:34;6.68;;;6.03;;
15952;SDS011;8075;47.766;8.846;2023-12-20T03:09:00;6.55;;;5.90;;
15952;SDS011;8075;47.766;8.846;2023-12-20T03:11:26;6.10;;;5.50;;
15952;SDS011;8075;47.766;8.846;2023-12-20T03:13:53;6.95;;;5.88;;
15952;SDS011;8075;47.766;8.846;2023-12-20T03:16:19;6.38;;;5.80;;
15952;SDS011;8075;47.766;8.846;2023-12-20T03:18:45;6.43;;;5.82;;
15952;SDS011;8075;47.766;8.846;2023-12-20T03:21:11;7.38;;;6.20;;
15952;SDS011;8075;47.766;8.846;2023-12-20T03:23:37;6.78;;;6.10;;
15952;SDS011;8075;47.766;8.846;2023-12-20T03:26:03;6.65;;;6.05;;
15952;SDS011;8075;47.766;8.846;2023-12-20T03:28:32;7.68;;;6.97;;
15952;SDS011;8075;47.766;8.846;2023-12-20T03:30:58;7.47;;;6.78;;
15952;SDS011;8075;47.766;8.846;2023-12-20T03:33:24;7.93;;;7.05;;
15952;SDS011;8075;47.766;8.846;2023-12-20T03:35:50;8.48;;;7.68;;
15952;SDS011;8075;47.766;8.846;2023-12-20T03:38:16;8.85;;;8.05;;
15952;SDS011;8075;47.766;8.846;2023-12-20T03:40:42;8.80;;;7.80;;
15952;SDS011;8075;47.766;8.846;2023-12-20T03:43:08;8.77;;;7.78;;
15952;SDS011;8075;47.766;8.846;2023-12-20T03:45:34;8.55;;;7.63;;
15952;SDS011;8075;47.766;8.846;2023-12-20T03:48:00;8.50;;;7.77;;
15952;SDS011;8075;47.766;8.846;2023-12-20T03:50:26;9.10;;;8.20;;
15952;SDS011;8075;47.766;8.846;2023-12-20T03:52:52;9.73;;;8.43;;
15952;SDS011;8075;47.766;8.846;2023-12-20T03:55:18;11.85;;;8.25;;
15952;SDS011;8075;47.766;8.846;2023-12-20T03:57:44;10.07;;;8.33;;
15952;SDS011;8075;47.766;8.846;2023-12-20T04:00:10;9.73;;;8.65;;
15952;SDS011;8075;47.766;8.846;2023-12-20T04:02:37;9.73;;;8.73;;
15952;SDS011;8075;47.766;8.846;2023-12-20T04:05:03;10.47;;;9.37;;
15952;SDS011;8075;47.766;8.846;2023-12-20T04:07:30;10.97;;;9.33;;
15952;SDS011;8075;47.766;8.846;2023-12-20T04:09:56;10.55;;;9.18;;
15952;SDS011;8075;47.766;8.846;2023-12-20T04:12:22;12.70;;;10.70;;
15952;SDS011;8075;47.766;8.846;2023-12-20T04:14:48;11.55;;;10.35;;
15952;SDS011;8075;47.766;8.846;2023-12-20T04:17:14;13.35;;;11.02;;
15952;SDS011;8075;47.766;8.846;2023-12-20T04:19:41;12.80;;;11.07;;
15952;SDS011;8075;47.766;8.846;2023-12-20T04:22:07;12.43;;;10.95;;
15952;SDS011;8075;47.766;8.846;2023-12-20T04:24:33;14.70;;;12.10;;
15952;SDS011;8075;47.766;8.846;2023-12-20T04:26:59;13.87;;;11.50;;
15952;SDS011;8075;47.766;8.846;2023-12-20T04:29:25;14.13;;;11.82;;
15952;SDS011;8075;47.766;8.846;2023-12-20T04:31:51;16.85;;;12.35;;
15952;SDS011;8075;47.766;8.846;2023-12-20T04:34:17;14.60;;;12.30;;
15952;SDS011;8075;47.766;8.846;2023-12-20T04:36:43;13.23;;;11.77;;
15952;SDS011;8075;47.766;8.846;2023-12-20T04:39:10;14.13;;;12.00;;
15952;SDS011;8075;47.766;8.846;2023-12-20T04:41:36;14.70;;;12.55;;
15952;SDS011;8075;47.766;8.846;2023-12-20T04:44:02;16.13;;;12.27;;
15952;SDS011;8075;47.766;8.846;2023-12-20T04:46:27;15.15;;;12.77;;
15952;SDS011;8075;47.766;8.846;2023-12-20T04:48:53;15.23;;;12.73;;
15952;SDS011;8075;47.766;8.846;2023-12-20T04:51:20;15.05;;;13.27;;
15952;SDS011;8075;47.766;8.846;2023-12-20T04:53:46;18.13;;;13.25;;
15952;SDS011;8075;47.766;8.846;2023-12-20T04:56:12;15.95;;;13.25;;
15952;SDS011;8075;47.766;8.846;2023-12-20T04:58:38;17.63;;;13.88;;
15952;SDS011;8075;47.766;8.846;2023-12-20T05:01:08;16.88;;;14.00;;
15952;SDS011;8075;47.766;8.846;2023-12-20T05:03:34;17.92;;;13.98;;
15952;SDS011;8075;47.766;8.846;2023-12-20T05:06:00;17.90;;;13.90;;
15952;SDS011;8075;47.766;8.846;2023-12-20T05:08:26;17.02;;;14.00;;
15952;SDS011;8075;47.766;8.846;2023-12-20T05:10:55;18.42;;;14.70;;
15952;SDS011;8075;47.766;8.846;2023-12-20T05:13:21;17.85;;;15.05;;
15952;SDS011;8075;47.766;8.846;2023-12-20T05:15:48;17.73;;;14.80;;
15952;SDS011;8075;47.766;8.846;2023-12-20T05:18:14;16.77;;;14.52;;
15952;SDS011;8075;47.766;8.846;2023-12-20T05:20:40;16.35;;;13.70;;
15952;SDS011;8075;47.766;8.846;2023-12-20T05:23:06;18.93;;;15.20;;
15952;SDS011;8075;47.766;8.846;2023-12-20T05:25:32;18.30;;;14.77;;
15952;SDS011;8075;47.766;8.846;2023-12-20T05:27:58;19.13;;;15.27;;
15952;SDS011;8075;47.766;8.846;2023-12-20T05:30:24;20.15;;;15.35;;
15952;SDS011;8075;47.766;8.846;2023-12-20T05:32:51;21.77;;;16.45;;
15952;SDS011;8075;47.766;8.846;2023-12-20T05:35:17;17.55;;;15.57;;
15952;SDS011;8075;47.766;8.846;2023-12-20T05:37:44;17.88;;;15.35;;
15952;SDS011;8075;47.766;8.846;2023-12-20T05:40:10;19.17;;;15.60;;
15952;SDS011;8075;47.766;8.846;2023-12-20T05:42:36;18.80;;;15.67;;
15952;SDS011;8075;47.766;8.846;2023-12-20T05:45:03;20.63;;;16.13;;
15952;SDS011;8075;47.766;8.846;2023-12-20T05:47:29;19.52;;;15.68;;
15952;SDS011;8075;47.766;8.846;2023-12-20T05:49:55;18.58;;;15.48;;
15952;SDS011;8075;47.766;8.846;2023-12-20T05:52:21;18.33;;;15.43;;
15952;SDS011;8075;47.766;8.846;2023-12-20T05:54:47;17.10;;;14.73;;
15952;SDS011;8075;47.766;8.846;2023-12-20T05:57:13;15.55;;;13.57;;
15952;SDS011;8075;47.766;8.846;2023-12-20T05:59:39;16.77;;;14.13;;
15952;SDS011;8075;47.766;8.846;2023-12-20T06:02:05;15.55;;;13.85;;
15952;SDS011;8075;47.766;8.846;2023-12-20T06:04:32;16.67;;;13.95;;
15952;SDS011;8075;47.766;8.846;2023-12-20T06:06:58;18.42;;;14.27;;
15952;SDS011;8075;47.766;8.846;2023-12-20T06:09:24;16.02;;;13.38;;
15952;SDS011;8075;47.766;8.846;2023-12-20T06:11:50;15.63;;;13.93;;
15952;SDS011;8075;47.766;8.846;2023-12-20T06:14:16;17.52;;;14.27;;
15952;SDS011;8075;47.766;8.846;2023-12-20T06:16:42;17.10;;;14.20;;
15952;SDS011;8075;47.766;8.846;2023-12-20T06:19:08;16.85;;;14.60;;
15952;SDS011;8075;47.766;8.846;2023-12-20T06:21:34;16.80;;;14.77;;
15952;SDS011;8075;47.766;8.846;2023-12-20T06:24:00;18.05;;;16.10;;
15952;SDS011;8075;47.766;8.846;2023-12-20T06:26:26;22.23;;;18.15;;
15952;SDS011;8075;47.766;8.846;2023-12-20T06:28:52;22.40;;;17.80;;
15952;SDS011;8075;47.766;8.846;2023-12-20T06:31:18;20.83;;;16.93;;
15952;SDS011;8075;47.766;8.846;2023-12-20T06:33:44;21.85;;;17.10;;
15952;SDS011;8075;47.766;8.846;2023-12-20T06:36:11;22.42;;;17.30;;
15952;SDS011;8075;47.766;8.846;2023-12-20T06:38:38;22.48;;;17.60;;
15952;SDS011;8075;47.766;8.846;2023-12-20T06:41:04;20.95;;;17.58;;
15952;SDS011;8075;47.766;8.846;2023-12-20T06:43:30;17.70;;;15.80;;
15952;SDS011;8075;47.766;8.846;2023-12-20T06:45:57;19.95;;;16.85;;
15952;SDS011;8075;47.766;8.846;2023-12-20T06:48:23;20.88;;;16.98;;
15952;SDS011;8075;47.766;8.846;2023-12-20T06:50:49;21.60;;;16.80;;
15952;SDS011;8075;47.766;8.846;2023-12-20T06:53:15;20.42;;;15.65;;
15952;SDS011;8075;47.766;8.846;2023-12-20T06:55:41;20.90;;;16.67;;
15952;SDS011;8075;47.766;8.846;2023-12-20T06:58:07;20.13;;;15.90;;
15952;SDS011;8075;47.766;8.846;2023-12-20T07:00:33;17.08;;;15.27;;
15952;SDS011;8075;47.766;8.846;2023-12-20T07:03:00;17.88;;;15.60;;
15952;SDS011;8075;47.766;8.846;2023-12-20T07:05:26;19.55;;;15.43;;
15952;SDS011;8075;47.766;8.846;2023-12-20T07:07:52;16.58;;;14.52;;
15952;SDS011;8075;47.766;8.846;2023-12-20T07:10:18;16.63;;;14.85;;
15952;SDS011;8075;47.766;8.846;2023-12-20T07:12:44;18.35;;;15.55;;
15952;SDS011;8075;47.766;8.846;2023-12-20T07:15:11;16.52;;;14.73;;
15952;SDS011;8075;47.766;8.846;2023-12-20T07:17:37;17.17;;;14.00;;
15952;SDS011;8075;47.766;8.846;2023-12-20T07:20:03;15.32;;;13.82;;
15952;SDS011;8075;47.766;8.846;2023-12-20T07:22:29;15.15;;;13.73;;
15952;SDS011;8075;47.766;8.846;2023-12-20T07:24:59;14.35;;;12.85;;
15952;SDS011;8075;47.766;8.846;2023-12-20T07:27:25;14.93;;;13.35;;
15952;SDS011;8075;47.766;8.846;2023-12-20T07:29:51;14.52;;;13.02;;
15952;SDS011;8075;47.766;8.846;2023-12-20T07:32:17;14.55;;;13.00;;
15952;SDS011;8075;47.766;8.846;2023-12-20T07:34:43;14.50;;;13.00;;
15952;SDS011;8075;47.766;8.846;2023-12-20T07:37:10;17.95;;;13.73;;
15952;SDS011;8075;47.766;8.846;2023-12-20T07:39:37;15.52;;;13.93;;
15952;SDS011;8075;47.766;8.846;2023-12-20T07:42:03;16.27;;;14.50;;
15952;SDS011;8075;47.766;8.846;2023-12-20T07:44:29;17.42;;;15.40;;
15952;SDS011;8075;47.766;8.846;2023-12-20T07:46:55;17.98;;;14.90;;
15952;SDS011;8075;47.766;8.846;2023-12-20T07:49:21;16.60;;;14.68;;
15952;SDS011;8075;47.766;8.846;2023-12-20T07:51:47;17.38;;;14.90;;
15952;SDS011;8075;47.766;8.846;2023-12-20T07:54:13;16.20;;;14.57;;
15952;SDS011;8075;47.766;8.846;2023-12-20T07:56:39;16.60;;;14.45;;
15952;SDS011;8075;47.766;8.846;2023-12-20T07:59:05;16.90;;;15.10;;
15952;SDS011;8075;47.766;8.846;2023-12-20T08:01:31;17.73;;;15.50;;
15952;SDS011;8075;47.766;8.846;2023-12-20T08:03:57;18.50;;;15.40;;
15952;SDS011;8075;47.766;8.846;2023-12-20T08:06:23;18.25;;;15.10;;
15952;SDS011;8075;47.766;8.846;2023-12-20T08:08:49;16.70;;;15.00;;
15952;SDS011;8075;47.766;8.846;2023-12-20T08:11:15;17.40;;;14.85;;
15952;SDS011;8075;47.766;8.846;2023-12-20T08:13:42;18.08;;;15.68;;
15952;SDS011;8075;47.766;8.846;2023-12-20T08:16:08;15.77;;;14.10;;
15952;SDS011;8075;47.766;8.846;2023-12-20T08:18:34;16.48;;;14.77;;
15952;SDS011;8075;47.766;8.846;2023-12-20T08:21:00;16.25;;;14.55;;
15952;SDS011;8075;47.766;8.846;2023-12-20T08:23:27;17.02;;;15.00;;
15952;SDS011;8075;47.766;8.846;2023-12-20T08:25:53;16.73;;;14.93;;
15952;SDS011;8075;47.766;8.846;2023-12-20T08:28:19;16.08;;;14.38;;
15952;SDS011;8075;47.766;8.846;2023-12-20T08:30:45;16.03;;;14.33;;
15952;SDS011;8075;47.766;8.846;2023-12-20T08:33:11;15.70;;;14.00;;
15952;SDS011;8075;47.766;8.846;2023-12-20T08:35:38;17.05;;;14.60;;
15952;SDS011;8075;47.766;8.846;2023-12-20T08:38:05;15.43;;;13.57;;
15952;SDS011;8075;47.766;8.846;2023-12-20T08:40:31;14.82;;;13.32;;
15952;SDS011;8075;47.766;8.846;2023-12-20T08:42:57;15.63;;;14.03;;
15952;SDS011;8075;47.766;8.846;2023-12-20T08:45:23;14.68;;;12.98;;
15952;SDS011;8075;47.766;8.846;2023-12-20T08:47:49;15.17;;;13.67;;
15952;SDS011;8075;47.766;8.846;2023-12-20T08:50:15;14.13;;;12.73;;
15952;SDS011;8075;47.766;8.846;2023-12-20T08:52:41;14.97;;;13.43;;
15952;SDS011;8075;47.766;8.846;2023-12-20T08:55:08;14.73;;;13.18;;
15952;SDS011;8075;47.766;8.846;2023-12-20T08:57:35;14.05;;;12.65;;
15952;SDS011;8075;47.766;8.846;2023-12-20T09:00:01;14.50;;;13.15;;
15952;SDS011;8075;47.766;8.846;2023-12-20T09:02:28;14.00;;;12.65;;
15952;SDS011;8075;47.766;8.846;2023-12-20T09:04:54;14.02;;;12.63;;
15952;SDS011;8075;47.766;8.846;2023-12-20T09:07:27;14.02;;;12.68;;
15952;SDS011;8075;47.766;8.846;2023-12-20T09:09:55;13.38;;;12.15;;
15952;SDS011;8075;47.766;8.846;2023-12-20T09:12:21;14.35;;;13.00;;
15952;SDS011;8075;47.766;8.846;2023-12-20T09:14:47;12.95;;;11.65;;
15952;SDS011;8075;47.766;8.846;2023-12-20T09:17:14;13.20;;;11.87;;
15952;SDS011;8075;47.766;8.846;2023-12-20T09:19:41;14.20;;;12.80;;
15952;SDS011;8075;47.766;8.846;2023-12-20T09:22:08;12.63;;;11.52;;
15952;SDS011;8075;47.766;8.846;2023-12-20T09:24:34;12.50;;;11.32;;
15952;SDS011;8075;47.766;8.846;2023-12-20T09:27:00;13.35;;;11.95;;
15952;SDS011;8075;47.766;8.846;2023-12-20T09:29:27;12.27;;;11.18;;
15952;SDS011;8075;47.766;8.846;2023-12-20T09:31:53;12.20;;;11.10;;
15952;SDS011;8075;47.766;8.846;2023-12-20T09:34:19;12.05;;;10.88;;
15952;SDS011;8075;47.766;8.846;2023-12-20T09:36:46;12.48;;;11.27;;
15952;SDS011;8075;47.766;8.846;2023-12-20T09:39:13;11.33;;;10.33;;
15952;SDS011;8075;47.766;8.846;2023-12-20T09:41:43;11.35;;;10.35;;
15952;SDS011;8075;47.766;8.846;2023-12-20T09:44:20;10.70;;;9.70;;
15952;SDS011;8075;47.766;8.846;2023-12-20T09:46:48;10.48;;;9.57;;
15952;SDS011;8075;47.766;8.846;2023-12-20T09:49:15;11.23;;;10.23;;
15952;SDS011;8075;47.766;8.846;2023-12-20T09:51:42;10.88;;;9.80;;
15952;SDS011;8075;47.766;8.846;2023-12-20T09:54:09;10.90;;;9.80;;
15952;SDS011;8075;47.766;8.846;2023-12-20T09:56:35;9.50;;;8.70;;
15952;SDS011;8075;47.766;8.846;2023-12-20T09:59:03;9.55;;;8.75;;
15952;SDS011;8075;47.766;8.846;2023-12-20T10:01:29;8.48;;;7.70;;
15952;SDS011;8075;47.766;8.846;2023-12-20T10:03:55;9.68;;;8.88;;
15952;SDS011;8075;47.766;8.846;2023-12-20T10:06:21;9.17;;;8.37;;
15952;SDS011;8075;47.766;8.846;2023-12-20T10:08:47;7.45;;;6.85;;
15952;SDS011;8075;47.766;8.846;2023-12-20T10:11:13;9.43;;;7.35;;
15952;SDS011;8075;47.766;8.846;2023-12-20T10:13:40;7.35;;;6.65;;
15952;SDS011;8075;47.766;8.846;2023-12-20T10:16:06;7.80;;;7.10;;
15952;SDS011;8075;47.766;8.846;2023-12-20T10:18:32;6.57;;;6.03;;
15952;SDS011;8075;47.766;8.846;2023-12-20T10:20:59;6.28;;;5.60;;
15952;SDS011;8075;47.766;8.846;2023-12-20T10:23:26;6.00;;;5.45;;
15952;SDS011;8075;47.766;8.846;2023-12-20T10:25:58;4.88;;;4.47;;
15952;SDS011;8075;47.766;8.846;2023-12-20T10:28:25;4.85;;;4.30;;
15952;SDS011;8075;47.766;8.846;2023-12-20T10:30:52;4.72;;;4.32;;
15952;SDS011;8075;47.766;8.846;2023-12-20T10:33:28;3.63;;;3.33;;
15952;SDS011;8075;47.766;8.846;2023-12-20T10:35:55;4.10;;;3.70;;
15952;SDS011;8075;47.766;8.846;2023-12-20T10:38:21;5.05;;;3.50;;
15952;SDS011;8075;47.766;8.846;2023-12-20T10:40:48;4.53;;;4.13;;
15952;SDS011;8075;47.766;8.846;2023-12-20T10:43:15;3.45;;;2.65;;
15952;SDS011;8075;47.766;8.846;2023-12-20T10:45:41;2.60;;;2.20;;
15952;SDS011;8075;47.766;8.846;2023-12-20T10:48:10;2.17;;;2.08;;
15952;SDS011;8075;47.766;8.846;2023-12-20T10:50:37;2.63;;;2.23;;
15952;SDS011;8075;47.766;8.846;2023-12-20T10:53:05;2.17;;;2.08;;
15952;SDS011;8075;47.766;8.846;2023-12-20T10:55:32;1.50;;;1.40;;
15952;SDS011;8075;47.766;8.846;2023-12-20T10:58:02;1.45;;;1.35;;
15952;SDS011;8075;47.766;8.846;2023-12-20T11:00:30;1.13;;;1.10;;
15952;SDS011;8075;47.766;8.846;2023-12-20T11:02:58;1.80;;;1.15;;
15952;SDS011;8075;47.766;8.846;2023-12-20T11:08:15;1.07;;;1.00;;
15952;SDS011;8075;47.766;8.846;2023-12-20T11:10:44;1.30;;;1.20;;
15952;SDS011;8075;47.766;8.846;2023-12-20T11:13:17;1.55;;;1.45;;
15952;SDS011;8075;47.766;8.846;2023-12-20T11:15:45;1.30;;;1.10;;
15952;SDS011;8075;47.766;8.846;2023-12-20T11:18:11;1.30;;;1.13;;
15952;SDS011;8075;47.766;8.846;2023-12-20T11:20:41;1.20;;;1.10;;
15952;SDS011;8075;47.766;8.846;2023-12-20T11:23:08;1.10;;;1.00;;
15952;SDS011;8075;47.766;8.846;2023-12-20T11:25:53;0.80;;;0.80;;
15952;SDS011;8075;47.766;8.846;2023-12-20T11:28:23;0.90;;;0.90;;
15952;SDS011;8075;47.766;8.846;2023-12-20T11:33:16;1.40;;;1.05;;
15952;SDS011;8075;47.766;8.846;2023-12-20T11:35:42;1.20;;;1.10;;
15952;SDS011;8075;47.766;8.846;2023-12-20T11:38:09;0.80;;;0.80;;
15952;SDS011;8075;47.766;8.846;2023-12-20T11:40:35;0.75;;;0.75;;
15952;SDS011;8075;47.766;8.846;2023-12-20T11:43:02;0.80;;;0.80;;
15952;SDS011;8075;47.766;8.846;2023-12-20T11:45:28;1.70;;;0.70;;
15952;SDS011;8075;47.766;8.846;2023-12-20T11:47:54;1.00;;;0.90;;
15952;SDS011;8075;47.766;8.846;2023-12-20T11:50:22;0.70;;;0.70;;
15952;SDS011;8075;47.766;8.846;2023-12-20T11:52:49;0.70;;;0.70;;
15952;SDS011;8075;47.766;8.846;2023-12-20T11:55:16;1.10;;;0.90;;
15952;SDS011;8075;47.766;8.846;2023-12-20T11:57:42;0.43;;;0.43;;
15952;SDS011;8075;47.766;8.846;2023-12-20T12:00:09;0.93;;;0.70;;
15952;SDS011;8075;47.766;8.846;2023-12-20T12:02:35;1.00;;;0.80;;
15952;SDS011;8075;47.766;8.846;2023-12-20T12:05:01;0.70;;;0.40;;
15952;SDS011;8075;47.766;8.846;2023-12-20T12:07:30;0.65;;;0.65;;
15952;SDS011;8075;47.766;8.846;2023-12-20T12:09:56;0.90;;;0.50;;
15952;SDS011;8075;47.766;8.846;2023-12-20T12:12:22;0.65;;;0.57;;
15952;SDS011;8075;47.766;8.846;2023-12-20T12:14:50;0.77;;;0.60;;
15952;SDS011;8075;47.766;8.846;2023-12-20T12:17:16;0.70;;;0.60;;
15952;SDS011;8075;47.766;8.846;2023-12-20T12:19:42;0.93;;;0.82;;
15952;SDS011;8075;47.766;8.846;2023-12-20T12:22:15;0.50;;;0.40;;
15952;SDS011;8075;47.766;8.846;2023-12-20T12:24:45;0.30;;;0.30;;
15952;SDS011;8075;47.766;8.846;2023-12-20T12:27:12;0.50;;;0.40;;
15952;SDS011;8075;47.766;8.846;2023-12-20T12:29:38;0.57;;;0.38;;
15952;SDS011;8075;47.766;8.846;2023-12-20T12:32:04;1.00;;;0.63;;
15952;SDS011;8075;47.766;8.846;2023-12-20T12:34:32;1.17;;;0.70;;
15952;SDS011;8075;47.766;8.846;2023-12-20T12:36:59;0.83;;;0.70;;
15952;SDS011;8075;47.766;8.846;2023-12-20T12:39:25;1.00;;;0.70;;
15952;SDS011;8075;47.766;8.846;2023-12-20T12:41:51;0.80;;;0.70;;
15952;SDS011;8075;47.766;8.846;2023-12-20T12:44:17;1.20;;;0.70;;
15952;SDS011;8075;47.766;8.846;2023-12-20T12:46:44;0.55;;;0.50;;
15952;SDS011;8075;47.766;8.846;2023-12-20T12:49:10;0.60;;;0.60;;
15952;SDS011;8075;47.766;8.846;2023-12-20T12:51:36;0.63;;;0.63;;
15952;SDS011;8075;47.766;8.846;2023-12-20T12:54:02;0.57;;;0.50;;
15952;SDS011;8075;47.766;8.846;2023-12-20T12:56:28;0.68;;;0.60;;
15952;SDS011;8075;47.766;8.846;2023-12-20T12:58:54;0.85;;;0.70;;
15952;SDS011;8075;47.766;8.846;2023-12-20T13:01:21;0.90;;;0.75;;
15952;SDS011;8075;47.766;8.846;2023-12-20T13:03:47;1.30;;;1.00;;
15952;SDS011;8075;47.766;8.846;2023-12-20T13:06:13;1.05;;;0.80;;
15952;SDS011;8075;47.766;8.846;2023-12-20T13:08:39;0.70;;;0.67;;
15952;SDS011;8075;47.766;8.846;2023-12-20T13:11:05;0.98;;;0.90;;
15952;SDS011;8075;47.766;8.846;2023-12-20T13:13:31;0.75;;;0.75;;
15952;SDS011;8075;47.766;8.846;2023-12-20T13:15:57;2.00;;;1.02;;
15952;SDS011;8075;47.766;8.846;2023-12-20T13:18:23;0.98;;;0.90;;
15952;SDS011;8075;47.766;8.846;2023-12-20T13:20:49;0.93;;;0.90;;
15952;SDS011;8075;47.766;8.846;2023-12-20T13:23:15;0.80;;;0.80;;
15952;SDS011;8075;47.766;8.846;2023-12-20T13:25:43;1.15;;;1.05;;
15952;SDS011;8075;47.766;8.846;2023-12-20T13:28:10;1.52;;;1.10;;
15952;SDS011;8075;47.766;8.846;2023-12-20T13:30:37;1.70;;;1.08;;
15952;SDS011;8075;47.766;8.846;2023-12-20T13:33:03;1.00;;;0.90;;
15952;SDS011;8075;47.766;8.846;2023-12-20T13:35:30;1.23;;;1.02;;
15952;SDS011;8075;47.766;8.846;2023-12-20T13:37:56;2.55;;;1.17;;
15952;SDS011;8075;47.766;8.846;2023-12-20T13:40:22;1.20;;;1.00;;
15952;SDS011;8075;47.766;8.846;2023-12-20T13:42:48;1.15;;;1.05;;
15952;SDS011;8075;47.766;8.846;2023-12-20T13:45:15;1.35;;;1.00;;
15952;SDS011;8075;47.766;8.846;2023-12-20T13:47:41;1.20;;;0.90;;
15952;SDS011;8075;47.766;8.846;2023-12-20T13:50:07;2.28;;;0.90;;
15952;SDS011;8075;47.766;8.846;2023-12-20T13:52:33;1.37;;;0.90;;
15952;SDS011;8075;47.766;8.846;2023-12-20T13:54:59;2.03;;;0.90;;
15952;SDS011;8075;47.766;8.846;2023-12-20T13:57:25;1.45;;;0.95;;
15952;SDS011;8075;47.766;8.846;2023-12-20T13:59:51;1.50;;;0.95;;
15952;SDS011;8075;47.766;8.846;2023-12-20T14:02:17;2.47;;;1.48;;
15952;SDS011;8075;47.766;8.846;2023-12-20T14:04:43;2.05;;;1.13;;
15952;SDS011;8075;47.766;8.846;2023-12-20T14:07:09;1.75;;;1.20;;
15952;SDS011;8075;47.766;8.846;2023-12-20T14:09:35;1.60;;;1.03;;
15952;SDS011;8075;47.766;8.846;2023-12-20T14:12:01;1.20;;;1.00;;
15952;SDS011;8075;47.766;8.846;2023-12-20T14:14:27;2.25;;;1.02;;
15952;SDS011;8075;47.766;8.846;2023-12-20T14:16:53;1.30;;;0.90;;
15952;SDS011;8075;47.766;8.846;2023-12-20T14:19:19;1.30;;;1.08;;
15952;SDS011;8075;47.766;8.846;2023-12-20T14:21:45;1.73;;;0.97;;
15952;SDS011;8075;47.766;8.846;2023-12-20T14:24:12;2.40;;;0.95;;
15952;SDS011;8075;47.766;8.846;2023-12-20T14:26:40;1.15;;;0.98;;
15952;SDS011;8075;47.766;8.846;2023-12-20T14:29:06;1.80;;;0.90;;
15952;SDS011;8075;47.766;8.846;2023-12-20T14:31:32;2.40;;;1.08;;
15952;SDS011;8075;47.766;8.846;2023-12-20T14:33:58;2.38;;;1.00;;
15952;SDS011;8075;47.766;8.846;2023-12-20T14:36:25;1.50;;;1.10;;
15952;SDS011;8075;47.766;8.846;2023-12-20T14:38:51;2.50;;;1.20;;
15952;SDS011;8075;47.766;8.846;2023-12-20T14:41:17;1.85;;;1.10;;
15952;SDS011;8075;47.766;8.846;2023-12-20T14:43:44;3.10;;;1.30;;
15952;SDS011;8075;47.766;8.846;2023-12-20T14:46:11;3.08;;;1.40;;
15952;SDS011;8075;47.766;8.846;2023-12-20T14:48:37;3.55;;;1.30;;
15952;SDS011;8075;47.766;8.846;2023-12-20T14:51:03;1.98;;;1.27;;